Cooper, Texas
Current Conditions -  °F | °C
As of 12:15 PM on Monday 26 Jan 2015 (Local Time) from KSLR Reporting Station
Clear Clear  
Wind Chill: 60°   Ceiling: Unl
Heat Index: 60°   Visibility: 10mi
Dew Point: 34°   Wind: 7mph
Humidity: 37%   Direction: 220°SW
Pressure: 30.17"   Gusts: NA
Location:  33.37°N, 95.69°W
Report Text: KSLR 261815Z AUTO 22006KT 10SM CLR 16/01 A3017 RMK AO2 T01580012
Loading
Personal Weather Stations






























Interactive Weather Map New forecast layout! Learn more

10-Day Weather Forecast

Advertisements
Track Severe Weather on mobile